Walnut Grove, Minnesota
Current Conditions -  °F | °C
As of 6:12 AM on Friday 31 Oct 2014 (Local Time) from KTKC Reporting Station
Clear Clear  
Wind Chill: 12°   Ceiling: Unl
Heat Index: 22°   Visibility: 10mi
Dew Point: 20°   Wind: 10mph
Humidity: 90%   Direction: 330°NNW
Pressure: 30.53"   Gusts: NA
Location:  44.22°N, 95.47°W
Report Text: KTKC 311112Z AUTO 33009KT 10SM CLR M05/M07 A3053 RMK AO2 T10531067
Loading
Personal Weather Stations






























Interactive Weather Map
Tropical Storm Tracking
New forecast layout! Learn more

10-Day Weather Forecast

Advertisements
Track Severe Weather on mobile